createdAt,value
2023-04-29T00:02:46.491Z,99661.28
2023-04-29T00:17:48.429Z,99657.47
2023-04-29T00:32:50.355Z,99661.84
2023-04-29T00:47:52.412Z,99661.22
2023-04-29T01:02:57.246Z,99675.59
2023-04-29T01:18:23.749Z,99674.72
2023-04-29T01:33:38.693Z,99674.22
2023-04-29T01:48:40.844Z,99674.22
2023-04-29T02:03:43.323Z,99684.00
2023-04-29T02:18:45.397Z,99692.38
2023-04-29T02:33:47.518Z,99696.84
2023-04-29T02:48:49.367Z,99714.38
2023-04-29T03:03:51.379Z,99719.06
2023-04-29T03:18:53.376Z,99717.41
2023-04-29T03:33:55.697Z,99719.59
2023-04-29T03:48:58.016Z,99731.34
2023-04-29T04:04:00.073Z,99741.25
2023-04-29T04:19:02.316Z,99733.84
2023-04-29T04:34:04.698Z,99753.63
2023-04-29T04:49:07.892Z,99752.28
2023-04-29T05:04:10.080Z,99764.50
2023-04-29T05:19:12.162Z,99776.72
2023-04-29T05:34:14.516Z,99780.19
2023-04-29T05:49:16.389Z,99811.50
2023-04-29T06:04:18.458Z,99827.56
2023-04-29T06:19:20.526Z,99849.97
2023-04-29T06:34:22.534Z,99878.59
2023-04-29T06:49:24.549Z,99865.69
2023-04-29T07:04:26.495Z,99871.19
2023-04-29T07:19:28.397Z,99848.31
2023-04-29T07:34:30.328Z,99844.06
2023-04-29T07:49:32.550Z,99842.34
2023-04-29T08:04:35.332Z,99826.34
2023-04-29T08:19:37.529Z,99831.00
2023-04-29T08:34:42.111Z,99834.53
2023-04-29T08:49:43.983Z,99820.88
2023-04-29T09:05:05.792Z,99811.78
2023-04-29T09:20:23.139Z,99802.53
2023-04-29T09:35:27.618Z,99789.94
2023-04-29T09:50:29.740Z,99787.66
2023-04-29T10:05:32.664Z,99832.78
2023-04-29T10:21:23.785Z,99831.38
2023-04-29T10:36:28.766Z,99842.31
2023-04-29T10:51:46.417Z,99858.41
2023-04-29T11:06:56.443Z,99866.03
2023-04-29T11:22:12.138Z,99863.44
2023-04-29T11:37:19.563Z,99842.31
2023-04-29T11:52:21.462Z,99833.81
2023-04-29T12:07:24.975Z,99815.28
2023-04-29T12:22:33.553Z,99823.47
2023-04-29T12:37:35.719Z,99813.16
2023-04-29T12:52:37.597Z,99824.13
2023-04-29T13:07:39.588Z,99833.81
2023-04-29T13:22:43.779Z,99837.41
2023-04-29T13:37:46.174Z,99819.16
2023-04-29T13:53:14.244Z,99823.78
2023-04-29T14:08:10.042Z,99815.94
2023-04-29T14:23:16.277Z,99826.78
2023-04-29T14:38:18.969Z,99820.69
2023-04-29T14:53:22.175Z,99806.84
2023-04-29T15:08:23.992Z,99796.47
2023-04-29T15:23:26.431Z,99789.75
2023-04-29T15:38:30.152Z,99787.25
2023-04-29T15:53:32.227Z,99792.03
2023-04-29T16:08:34.179Z,99816.25
2023-04-29T16:23:36.060Z,99804.94
2023-04-29T16:38:38.487Z,99801.75
2023-04-29T16:53:40.382Z,99803.38
2023-04-29T17:08:43.262Z,99806.84
2023-04-29T17:23:45.108Z,99808.47
2023-04-29T17:38:47.212Z,99783.72
2023-04-29T17:54:01.363Z,99779.53
2023-04-29T18:09:03.746Z,99795.50
2023-04-29T18:24:06.191Z,99787.84
2023-04-29T18:39:08.476Z,99789.25
2023-04-29T18:54:10.291Z,99768.06
2023-04-29T19:09:12.327Z,99770.88
2023-04-29T19:24:15.218Z,99741.09
2023-04-29T19:39:18.609Z,99701.75
2023-04-29T19:54:20.478Z,99704.91
2023-04-29T20:09:22.280Z,99689.59
2023-04-29T20:24:24.371Z,99694.78
2023-04-29T20:39:26.671Z,99690.25
2023-04-29T20:54:28.502Z,99681.81
2023-04-29T21:09:30.344Z,99687.50
2023-04-29T21:24:32.309Z,99693.22
2023-04-29T21:39:34.747Z,99686.50
2023-04-29T21:54:36.807Z,99658.44
2023-04-29T22:09:38.646Z,99625.25
2023-04-29T22:24:40.493Z,99588.97
2023-04-29T22:39:43.221Z,99593.19
2023-04-29T22:54:45.032Z,99572.91
2023-04-29T23:09:47.063Z,99539.13
2023-04-29T23:24:48.899Z,99504.69
2023-04-29T23:39:52.310Z,99536.19
2023-04-29T23:54:54.426Z,99522.75
